NCAR-RAP Real-Time Weather Data

Output produced by METARs form (17 September 2019  16:41 UTC)
found at http://weather.rap.ucar.edu/surface/
 
KROC 171554Z VRB03KT 10SM FEW250 21/12 A3024 RMK AO2 SLP242 T02110117 $
KROC 171454Z 00000KT 10SM FEW250 20/12 A3025 RMK AO2 SLP245 T02000117 51008 $
KROC 171354Z 00000KT 10SM FEW250 17/12 A3025 RMK AO2 SLP245 T01670117 $
KROC 171254Z 24003KT 10SM FEW250 13/11 A3024 RMK AO2 SLP245 T01280106 $
KROC 171154Z 23003KT 10SM FEW250 10/09 A3022 RMK AO2 SLP238 T01000089 10111 20089 53016 $
KROC 171054Z 00000KT 10SM SCT250 09/08 A3021 RMK AO2 SLP232 T00940078 $
KROC 170954Z 25003KT 10SM CLR 09/08 A3019 RMK AO2 SLP226 T00940078 $
KROC 170854Z 24004KT 10SM CLR 09/08 A3017 RMK AO2 SLP221 T00940078 53000 $
KROC 170754Z 00000KT 10SM CLR 10/08 A3017 RMK AO2 SLP220 T01000083 $
KROC 170654Z 00000KT 10SM CLR 11/09 A3017 RMK AO2 SLP219 T01060089 $
KROC 170554Z 00000KT 10SM CLR 11/09 A3017 RMK AO2 SLP220 T01110094 10172 20106 53007 $
KROC 170454Z 26003KT 10SM FEW180 FEW250 12/09 A3016 RMK AO2 SLP215 T01220094 402220117 $
KROC 170354Z 00000KT 10SM BKN095 13/10 A3015 RMK AO2 SLP214 T01280100 $
KROC 170254Z 23003KT 10SM FEW180 13/10 A3015 RMK AO2 SLP213 T01280100 53012 $
KROC 170054Z 07004KT 10SM BKN110 16/08 A3013 RMK AO2 SLP204 T01610078 $
KROC 162354Z 07005KT 10SM SCT080 BKN100 17/08 A3012 RMK AO2 SLP201 T01670083 10222 20167 52005 $
KROC 162254Z 07006KT 10SM FEW080 BKN100 BKN140 18/08 A3011 RMK AO2 SLP199 T01830078 $
KROC 162154Z 07010KT 10SM FEW100 BKN120 BKN140 19/09 A3011 RMK AO2 SLP196 T01940089 $
KROC 162054Z 05010KT 10SM FEW040 BKN120 BKN140 21/10 A3010 RMK AO2 SLP195 T02060100 55003 $
KROC 161954Z 02011KT 10SM FEW065 SCT120 22/10 A3010 RMK AO2 SLP194 T02170100 $
KROC 161854Z 02009KT 10SM FEW050 SCT140 22/11 A3010 RMK AO2 SLP196 T02170111 $